Time;durP1;ratioP1;P1;durP2;ratioP2;P2;SDS_P1;SDS_P2;PMS_P1;PMS_P2;Temp;Humidity;BMP_temperature;BMP_pressure;BME280_temperature;BME280_humidity;BME280_pressure;Samples;Min_cycle;Max_cycle;Signal;HPM_P1;HPM_P2
2022/01/29 00:00:11;;;;;;;23.40;8.47;;;;;;;17.44;43.91;102910.16;5048075;28;20028;-70
2022/01/29 00:02:36;;;;;;;25.07;9.30;;;;;;;17.84;42.30;102893.13;5051972;28;20308;-70
2022/01/29 00:05:02;;;;;;;25.43;10.47;;;;;;;18.29;41.81;102895.44;5065217;28;20032;-70
2022/01/29 00:07:27;;;;;;;38.57;13.47;;;;;;;17.77;42.22;102894.94;5065393;28;20024;-70
2022/01/29 00:10:00;;;;;;;24.80;8.60;;;;;;;18.21;41.31;102889.34;5049599;28;20036;-70
2022/01/29 00:12:25;;;;;;;13.20;6.70;;;;;;;18.07;41.76;102890.34;5054453;28;20036;-69
2022/01/29 00:14:51;;;;;;;22.70;7.10;;;;;;;18.48;40.43;102881.09;5069168;28;20503;-70
2022/01/29 00:17:16;;;;;;;16.77;7.37;;;;;;;17.72;43.66;102878.25;5050293;28;20021;-70
2022/01/29 00:19:42;;;;;;;17.00;6.97;;;;;;;17.20;43.35;102868.00;5048738;28;20480;-70
2022/01/29 00:22:07;;;;;;;15.87;6.90;;;;;;;17.26;45.13;102873.25;5048425;28;20570;-70
2022/01/29 00:24:33;;;;;;;22.00;7.40;;;;;;;17.90;42.42;102865.75;5065297;28;20056;-70
2022/01/29 00:27:02;;;;;;;21.37;7.50;;;;;;;16.59;45.87;102864.72;5064231;28;20071;-70
2022/01/29 00:29:27;;;;;;;12.60;6.40;;;;;;;17.89;42.41;102858.72;5051405;28;20024;-71
2022/01/29 00:31:53;;;;;;;24.53;7.10;;;;;;;16.49;46.58;102858.59;5048283;28;20021;-70
2022/01/29 00:34:18;;;;;;;18.80;6.13;;;;;;;16.77;44.66;102848.81;5049434;28;20032;-70
2022/01/29 00:36:43;;;;;;;25.70;8.30;;;;;;;17.06;44.26;102850.47;5064629;28;20013;-70
2022/01/29 00:39:09;;;;;;;16.50;6.37;;;;;;;16.85;44.26;102850.53;5047759;28;20036;-70
2022/01/29 00:41:34;;;;;;;32.17;7.80;;;;;;;17.25;44.50;102853.00;5058109;28;20416;-70
2022/01/29 00:44:00;;;;;;;22.03;7.83;;;;;;;18.37;42.22;102840.63;5067439;28;20405;-70
2022/01/29 00:46:25;;;;;;;16.73;6.90;;;;;;;18.18;43.12;102844.38;5050235;28;20120;-70
2022/01/29 00:48:50;;;;;;;21.27;7.40;;;;;;;18.21;41.70;102834.63;5047103;28;20032;-70
2022/01/29 00:51:16;;;;;;;17.90;6.23;;;;;;;19.19;40.29;102836.09;5048041;28;20365;-70
2022/01/29 00:53:41;;;;;;;16.23;6.90;;;;;;;17.93;42.53;102844.63;5049322;28;20029;-70
2022/01/29 00:56:09;;;;;;;20.27;6.97;;;;;;;18.47;41.68;102836.97;5066230;28;20563;-70
2022/01/29 00:58:34;;;;;;;20.47;6.47;;;;;;;18.21;43.04;102831.09;5065182;28;20042;-70
2022/01/29 01:01:00;;;;;;;21.83;7.43;;;;;;;17.42;45.02;102830.00;5068488;28;20115;-70
2022/01/29 01:03:26;;;;;;;19.33;7.33;;;;;;;18.47;41.40;102826.38;5052039;28;20114;-70
2022/01/29 01:05:51;;;;;;;19.43;7.50;;;;;;;17.93;43.41;102828.75;5063361;28;20055;-70
2022/01/29 01:08:17;;;;;;;14.23;6.93;;;;;;;17.62;43.96;102823.66;5060678;28;20480;-70
2022/01/29 01:10:42;;;;;;;13.87;6.50;;;;;;;17.38;44.54;102820.31;5068602;28;20036;-70
2022/01/29 01:13:08;;;;;;;20.17;6.40;;;;;;;17.92;43.77;102811.09;5059196;28;20032;-70
2022/01/29 01:15:33;;;;;;;20.00;6.33;;;;;;;18.80;42.73;102805.69;5061527;28;20078;-70
2022/01/29 01:17:59;;;;;;;17.40;6.17;;;;;;;18.20;43.84;102800.25;5063649;28;20017;-70
2022/01/29 01:20:24;;;;;;;17.63;6.47;;;;;;;19.07;42.03;102805.34;5061019;28;20114;-70
2022/01/29 01:22:50;;;;;;;18.87;7.13;;;;;;;19.31;41.50;102785.56;5050850;28;20067;-71
2022/01/29 01:25:15;;;;;;;16.07;6.17;;;;;;;17.48;45.61;102793.84;5067927;28;20495;-70
2022/01/29 01:27:41;;;;;;;12.37;6.07;;;;;;;17.37;46.20;102793.91;5067197;28;20152;-70
2022/01/29 01:30:07;;;;;;;10.03;5.63;;;;;;;17.59;45.85;102794.63;5058393;28;20060;-70
2022/01/29 01:32:32;;;;;;;11.33;5.40;;;;;;;18.33;43.69;102785.09;5053962;28;20028;-70
2022/01/29 01:35:08;;;;;;;11.40;5.93;;;;;;;18.64;42.82;102783.84;5057048;28;20498;-70
2022/01/29 01:37:40;;;;;;;10.53;5.73;;;;;;;16.68;48.63;102780.19;5072014;28;20026;-70
2022/01/29 01:40:07;;;;;;;11.50;5.65;;;;;;;17.21;47.69;102782.56;5051811;28;20088;-70
2022/01/29 01:42:33;;;;;;;12.03;5.93;;;;;;;17.23;47.67;102773.75;5052611;28;20039;-69
2022/01/29 01:44:58;;;;;;;9.40;5.67;;;;;;;18.38;44.29;102767.38;5064897;28;20033;-70
2022/01/29 01:47:24;;;;;;;9.80;5.50;;;;;;;17.35;46.97;102772.78;5051990;28;20036;-70
2022/01/29 01:49:49;;;;;;;10.67;5.87;;;;;;;16.87;48.05;102774.81;5056949;28;20025;-70
2022/01/29 01:52:14;;;;;;;11.93;6.03;;;;;;;17.43;46.70;102770.97;5057631;28;20484;-69
2022/01/29 01:54:41;;;;;;;12.00;6.27;;;;;;;17.77;47.09;102775.94;5064546;28;20393;-69
2022/01/29 01:57:07;;;;;;;13.50;6.73;;;;;;;17.86;46.56;102767.03;5050850;28;20449;-70
2022/01/29 01:59:33;;;;;;;13.53;7.70;;;;;;;17.92;46.36;102760.84;5049855;28;20157;-70
2022/01/29 02:01:58;;;;;;;15.40;8.10;;;;;;;17.40;47.58;102760.38;5050676;28;20063;-70
2022/01/29 02:04:24;;;;;;;15.83;7.77;;;;;;;16.95;49.81;102749.25;5069259;28;20060;-70
2022/01/29 02:06:50;;;;;;;16.77;8.30;;;;;;;17.65;48.71;102749.59;5068829;28;20051;-70
2022/01/29 02:09:17;;;;;;;17.33;8.67;;;;;;;17.91;47.50;102751.13;5066542;28;20091;-70
2022/01/29 02:11:56;;;;;;;15.23;7.93;;;;;;;17.82;46.16;102746.81;5052341;28;20033;-70
2022/01/29 02:14:30;;;;;;;15.83;8.47;;;;;;;16.85;49.21;102744.91;5058782;28;20111;-70
2022/01/29 02:16:55;;;;;;;17.93;9.20;;;;;;;17.20;48.35;102735.88;5046397;28;20025;-70
2022/01/29 02:19:21;;;;;;;23.17;9.23;;;;;;;18.30;44.62;102728.66;5037680;28;20024;-70
2022/01/29 02:21:46;;;;;;;21.03;8.33;;;;;;;17.29;46.97;102730.53;5049927;28;20086;-71
2022/01/29 02:24:12;;;;;;;23.30;9.57;;;;;;;18.44;45.15;102724.97;5050572;28;20031;-70
2022/01/29 02:26:37;;;;;;;18.93;8.87;;;;;;;17.77;47.38;102733.59;5057416;28;20511;-70
2022/01/29 02:29:04;;;;;;;22.33;9.10;;;;;;;18.39;45.69;102722.34;5051383;28;20021;-70
2022/01/29 02:31:29;;;;;;;19.97;8.37;;;;;;;17.11;48.33;102727.13;5069420;28;20032;-69
2022/01/29 02:33:54;;;;;;;16.23;8.67;;;;;;;17.74;47.05;102723.06;5069724;28;20066;-70
2022/01/29 02:36:20;;;;;;;16.70;8.27;;;;;;;18.75;43.97;102704.22;5054454;28;20035;-71
2022/01/29 02:38:45;;;;;;;24.93;9.03;;;;;;;18.38;44.66;102710.03;5051104;28;20044;-70
2022/01/29 02:41:11;;;;;;;22.97;8.97;;;;;;;17.74;48.09;102716.91;5057184;28;20460;-70
2022/01/29 02:43:46;;;;;;;21.13;8.23;;;;;;;18.61;45.26;102690.28;5051609;28;20064;-70
2022/01/29 02:46:29;;;;;;;18.13;8.07;;;;;;;17.68;46.40;102694.06;5051556;28;20033;-70
2022/01/29 02:48:56;;;;;;;17.90;7.97;;;;;;;17.62;47.77;102694.09;5050208;28;20079;-70
2022/01/29 02:51:23;;;;;;;23.70;8.37;;;;;;;18.09;46.00;102682.16;5055676;28;20032;-70
2022/01/29 02:53:49;;;;;;;20.37;9.10;;;;;;;17.51;46.98;102677.47;5070528;28;20024;-70
2022/01/29 02:56:14;;;;;;;19.33;6.93;;;;;;;16.57;50.97;102676.44;5068706;28;20024;-70
2022/01/29 02:58:40;;;;;;;16.57;8.27;;;;;;;17.51;48.26;102666.91;5062132;28;20025;-70
2022/01/29 03:01:07;;;;;;;18.50;7.53;;;;;;;17.92;46.25;102668.25;5052120;28;20032;-70
2022/01/29 03:03:32;;;;;;;18.37;8.30;;;;;;;18.03;45.96;102662.84;5065363;28;20028;-70
2022/01/29 03:05:58;;;;;;;15.60;7.43;;;;;;;18.98;42.92;102652.69;5068017;28;20033;-70
2022/01/29 03:08:23;;;;;;;15.57;7.43;;;;;;;18.53;44.18;102661.25;5082637;28;20028;-70
2022/01/29 03:10:49;;;;;;;18.27;7.63;;;;;;;18.01;45.79;102661.97;5050690;28;20496;-70
2022/01/29 03:13:15;;;;;;;18.83;7.63;;;;;;;18.46;44.91;102655.22;5049432;28;20507;-70
2022/01/29 03:15:41;;;;;;;14.30;7.30;;;;;;;18.96;43.87;102655.34;5048749;28;20047;-70
2022/01/29 03:18:06;;;;;;;14.33;6.97;;;;;;;19.44;42.80;102651.88;5058669;28;20025;-70
2022/01/29 03:20:32;;;;;;;24.13;8.57;;;;;;;19.54;42.77;102649.06;5048593;28;20103;-70
2022/01/29 03:22:59;;;;;;;23.47;7.50;;;;;;;18.38;45.77;102635.03;5050032;28;20029;-70
2022/01/29 03:25:24;;;;;;;15.70;6.07;;;;;;;18.58;44.49;102640.03;5050321;28;20041;-70
2022/01/29 03:27:50;;;;;;;19.73;6.90;;;;;;;18.67;44.78;102636.38;5049401;28;20032;-70
2022/01/29 03:30:16;;;;;;;24.93;8.40;;;;;;;16.99;49.04;102631.25;5050488;28;20028;-70
2022/01/29 03:32:42;;;;;;;13.00;6.83;;;;;;;18.10;46.20;102630.97;5059159;28;20031;-70
2022/01/29 03:35:08;;;;;;;20.23;8.27;;;;;;;17.47;47.60;102629.03;5063933;28;20031;-70
2022/01/29 03:37:33;;;;;;;21.67;7.10;;;;;;;18.38;45.88;102629.72;5061305;28;20017;-70
2022/01/29 03:40:02;;;;;;;22.07;7.33;;;;;;;19.03;44.16;102629.63;5066542;28;20485;-70
2022/01/29 03:42:31;;;;;;;17.97;6.83;;;;;;;17.86;46.75;102631.25;5049434;28;20789;-70
2022/01/29 03:44:57;;;;;;;18.00;6.93;;;;;;;18.48;46.09;102631.34;5050602;28;20040;-70
2022/01/29 03:47:23;;;;;;;17.43;6.40;;;;;;;18.60;44.64;102632.94;5085004;28;20388;-70
2022/01/29 03:49:48;;;;;;;12.93;6.03;;;;;;;18.10;45.31;102625.69;5069061;28;20055;-70
2022/01/29 03:52:14;;;;;;;17.90;5.87;;;;;;;18.28;45.39;102624.56;5066225;28;20020;-69
2022/01/29 03:54:39;;;;;;;15.97;6.27;;;;;;;18.95;44.64;102628.88;5065180;28;20116;-70
2022/01/29 03:57:04;;;;;;;16.73;6.03;;;;;;;17.96;46.65;102619.72;5064359;28;20029;-70
2022/01/29 03:59:30;;;;;;;13.10;5.87;;;;;;;17.95;46.28;102624.09;5058754;28;20040;-70
2022/01/29 04:01:55;;;;;;;15.43;5.60;;;;;;;18.44;44.49;102625.22;5054239;28;20024;-70
2022/01/29 04:04:20;;;;;;;11.17;5.47;;;;;;;18.66;44.78;102609.00;5068313;28;20067;-70
2022/01/29 04:06:46;;;;;;;9.07;4.83;;;;;;;17.76;46.55;102609.34;5067439;28;20024;-69
2022/01/29 04:09:12;;;;;;;12.97;5.23;;;;;;;18.30;46.19;102606.03;5060670;28;20036;-70
2022/01/29 04:11:38;;;;;;;18.13;5.97;;;;;;;18.00;46.66;102608.19;5050987;28;20036;-70
2022/01/29 04:14:16;;;;;;;15.43;5.77;;;;;;;18.55;45.52;102605.66;5048075;28;20368;-70
2022/01/29 04:16:41;;;;;;;11.20;5.50;;;;;;;19.67;42.57;102605.47;5050852;28;20032;-70
2022/01/29 04:19:07;;;;;;;8.20;3.97;;;;;;;18.36;45.36;102605.94;5057358;28;20451;-70
2022/01/29 04:21:32;;;;;;;9.80;5.20;;;;;;;18.88;44.16;102608.72;5059885;28;20045;-70
2022/01/29 04:23:58;;;;;;;16.27;5.70;;;;;;;18.87;44.12;102612.22;5052861;28;20512;-70
2022/01/29 04:26:23;;;;;;;8.13;4.87;;;;;;;17.84;46.12;102606.59;5047273;28;20477;-69
2022/01/29 04:28:49;;;;;;;15.97;5.37;;;;;;;19.92;41.92;102599.66;5054840;28;20480;-70
2022/01/29 04:31:18;;;;;;;14.17;5.60;;;;;;;18.90;43.63;102601.59;5064131;28;20020;-70
2022/01/29 04:33:44;;;;;;;17.63;4.73;;;;;;;18.66;44.29;102590.47;5063888;28;20107;-70
2022/01/29 04:36:10;;;;;;;15.73;5.67;;;;;;;17.39;47.54;102589.50;5050733;28;20043;-70
2022/01/29 04:38:35;;;;;;;10.73;4.40;;;;;;;18.63;44.17;102587.88;5069399;28;20378;-70
2022/01/29 04:41:04;;;;;;;9.30;4.40;;;;;;;19.56;42.71;102571.19;5068526;28;20494;-70
2022/01/29 04:43:35;;;;;;;18.97;6.37;;;;;;;19.05;43.78;102577.47;5064816;28;20028;-70
2022/01/29 04:46:02;;;;;;;9.73;4.57;;;;;;;17.99;45.62;102569.41;5049258;28;20064;-70
2022/01/29 04:48:28;;;;;;;15.37;5.23;;;;;;;18.63;45.43;102566.69;5049526;28;20029;-70
2022/01/29 04:50:53;;;;;;;12.77;5.20;;;;;;;18.76;44.20;102570.88;5069198;28;20028;-69
2022/01/29 04:53:19;;;;;;;8.97;4.87;;;;;;;18.88;44.51;102571.63;5065378;28;20070;-70
2022/01/29 04:55:44;;;;;;;11.57;4.70;;;;;;;18.08;45.78;102558.69;5055474;28;20024;-70
2022/01/29 04:58:10;;;;;;;13.87;4.90;;;;;;;18.77;45.05;102569.97;5050831;28;20524;-69
2022/01/29 05:00:35;;;;;;;14.17;5.43;;;;;;;18.31;45.45;102561.00;5057430;28;20039;-70
2022/01/29 05:03:10;;;;;;;13.90;5.30;;;;;;;19.35;42.58;102547.78;5047096;28;20391;-70
2022/01/29 05:05:36;;;;;;;7.77;3.83;;;;;;;17.83;46.28;102541.38;5062724;28;20056;-70
2022/01/29 05:08:01;;;;;;;11.57;4.53;;;;;;;19.41;43.20;102545.88;5048069;28;20489;-70
2022/01/29 05:10:27;;;;;;;13.77;4.73;;;;;;;18.59;45.37;102555.28;5048975;28;20048;-69
2022/01/29 05:13:01;;;;;;;7.30;4.23;;;;;;;18.77;44.69;102553.22;5049039;28;20520;-70
2022/01/29 05:15:41;;;;;;;12.17;4.77;;;;;;;18.76;44.53;102552.31;5062562;28;20029;-70
2022/01/29 05:29:07;;;;;;;12.07;5.53;;;;;;;18.79;44.73;102559.34;5065416;28;20598;-70
2022/01/29 05:31:32;;;;;;;13.97;4.37;;;;;;;17.92;45.97;102562.44;5067372;28;20028;-70
2022/01/29 05:33:58;;;;;;;9.30;4.27;;;;;;;18.30;45.01;102561.03;5068132;28;20036;-70
2022/01/29 05:36:24;;;;;;;9.67;3.90;;;;;;;18.86;44.23;102560.13;5064972;28;20078;-70
2022/01/29 05:38:49;;;;;;;14.47;4.47;;;;;;;18.46;44.86;102559.00;5057730;28;20100;-70
2022/01/29 05:41:15;;;;;;;13.60;4.63;;;;;;;18.68;45.82;102558.66;5047220;28;20039;-70
2022/01/29 05:43:42;;;;;;;8.53;4.60;;;;;;;19.24;43.98;102542.69;5064684;28;20040;-70
2022/01/29 05:46:09;;;;;;;17.10;4.87;;;;;;;18.62;44.82;102554.34;5054594;28;20032;-70
2022/01/29 05:48:35;;;;;;;17.17;4.97;;;;;;;18.54;44.48;102548.31;5047375;28;20504;-69
2022/01/29 05:51:00;;;;;;;10.80;4.67;;;;;;;18.61;45.01;102557.88;5046954;28;20037;-70
2022/01/29 05:53:25;;;;;;;8.33;4.13;;;;;;;18.71;44.87;102558.59;5061095;28;20025;-70
2022/01/29 05:55:50;;;;;;;9.40;4.87;;;;;;;18.24;47.35;102558.47;5064491;28;20062;-70
2022/01/29 05:58:16;;;;;;;12.03;4.60;;;;;;;19.26;43.99;102552.34;5063917;28;20028;-70
2022/01/29 06:00:42;;;;;;;7.97;4.10;;;;;;;18.91;45.51;102545.06;5072217;28;20056;-70
2022/01/29 06:03:09;;;;;;;8.20;4.10;;;;;;;19.27;43.02;102545.25;5070964;28;20484;-70
2022/01/29 06:05:35;;;;;;;9.97;4.10;;;;;;;18.94;43.97;102550.28;5050993;28;20025;-70
2022/01/29 06:08:01;;;;;;;8.53;4.20;;;;;;;19.42;43.43;102544.97;5050490;28;20037;-70
2022/01/29 06:10:27;;;;;;;9.90;3.70;;;;;;;19.56;42.63;102538.50;5054051;28;20614;-70
2022/01/29 06:12:58;;;;;;;11.10;4.47;;;;;;;19.15;44.32;102535.75;5071308;28;20124;-71
2022/01/29 06:15:23;;;;;;;11.07;3.87;;;;;;;19.47;43.51;102540.44;5066283;28;20404;-70
2022/01/29 06:17:48;;;;;;;18.57;4.83;;;;;;;19.00;44.89;102539.59;5069281;28;20032;-70
2022/01/29 06:20:14;;;;;;;8.50;3.50;;;;;;;18.96;43.89;102537.91;5051864;28;20036;-70
2022/01/29 06:22:42;;;;;;;12.20;4.63;;;;;;;18.72;44.74;102533.88;5059804;28;20063;-70
2022/01/29 06:25:08;;;;;;;13.83;4.00;;;;;;;19.19;44.48;102520.69;5054965;28;20032;-69
2022/01/29 06:27:33;;;;;;;9.33;3.93;;;;;;;18.42;45.36;102528.19;5061043;28;20029;-70
2022/01/29 06:29:59;;;;;;;10.13;3.27;;;;;;;18.96;44.56;102511.41;5065180;28;20036;-70
2022/01/29 06:32:24;;;;;;;8.20;3.93;;;;;;;19.70;42.67;102504.63;5069226;28;20043;-70
2022/01/29 06:34:50;;;;;;;7.07;3.57;;;;;;;19.28;43.03;102499.31;5053346;28;20427;-70
2022/01/29 06:37:15;;;;;;;12.80;4.07;;;;;;;19.17;43.65;102493.34;5051647;28;20029;-70
2022/01/29 06:39:40;;;;;;;12.70;3.90;;;;;;;18.54;45.28;102504.16;5067067;28;20575;-70
2022/01/29 06:42:06;;;;;;;10.93;3.93;;;;;;;18.34;45.83;102500.97;5050644;28;20036;-70
2022/01/29 06:44:31;;;;;;;11.67;4.10;;;;;;;18.16;47.53;102500.34;5049975;28;20037;-70
2022/01/29 06:46:57;;;;;;;11.13;4.93;;;;;;;19.15;43.81;102496.91;5043909;28;21473;-69
2022/01/29 06:49:22;;;;;;;10.43;4.23;;;;;;;19.43;43.41;102485.72;5050138;28;20582;-70
2022/01/29 06:51:47;;;;;;;9.43;3.60;;;;;;;17.75;47.06;102491.22;5051054;28;20029;-69
2022/01/29 06:54:13;;;;;;;8.37;3.20;;;;;;;18.14;47.01;102495.09;5037287;28;20144;-70
2022/01/29 06:56:38;;;;;;;14.37;4.30;;;;;;;19.47;44.06;102486.53;5055849;28;20472;-69
2022/01/29 06:59:03;;;;;;;8.73;3.93;;;;;;;18.80;44.08;102498.41;5075612;28;20479;-70
2022/01/29 07:01:29;;;;;;;14.63;4.67;;;;;;;19.82;42.63;102483.16;5065451;28;20040;-70
2022/01/29 07:03:54;;;;;;;10.17;3.87;;;;;;;19.29;43.13;102482.50;5050026;28;20099;-70
2022/01/29 07:06:19;;;;;;;13.67;5.30;;;;;;;18.70;45.37;102494.19;5049066;28;20506;-70
2022/01/29 07:08:45;;;;;;;8.10;4.13;;;;;;;19.13;45.31;102488.09;5064072;28;20044;-70
2022/01/29 07:11:10;;;;;;;10.07;3.50;;;;;;;18.84;45.18;102491.28;5049681;28;20117;-70
2022/01/29 07:13:36;;;;;;;15.37;3.17;;;;;;;19.81;42.81;102476.09;5051850;28;20028;-69
2022/01/29 07:16:01;;;;;;;12.80;3.90;;;;;;;18.70;45.11;102486.22;5068953;28;20029;-69
2022/01/29 07:18:27;;;;;;;9.53;3.27;;;;;;;18.38;45.67;102487.66;5059513;28;20553;-70
2022/01/29 07:20:52;;;;;;;6.57;4.30;;;;;;;18.59;45.99;102490.84;5059235;28;20064;-70
2022/01/29 07:23:17;;;;;;;6.50;3.40;;;;;;;19.24;44.78;102479.94;5063144;28;20028;-69
2022/01/29 07:25:43;;;;;;;11.20;3.17;;;;;;;19.35;44.51;102474.41;5070906;28;20021;-69
2022/01/29 07:28:08;;;;;;;13.77;3.57;;;;;;;17.56;48.29;102474.75;5058544;28;20016;-69
2022/01/29 07:30:33;;;;;;;10.73;3.40;;;;;;;18.92;45.17;102477.94;5057915;28;20021;-70
2022/01/29 07:32:59;;;;;;;8.50;3.40;;;;;;;18.55;45.65;102483.88;5061509;28;20062;-69
2022/01/29 07:35:24;;;;;;;17.07;3.40;;;;;;;18.23;46.75;102474.66;5050527;28;20781;-69
2022/01/29 07:37:49;;;;;;;12.47;3.87;;;;;;;18.63;46.82;102471.38;5061124;28;20039;-70
2022/01/29 07:40:15;;;;;;;10.67;3.90;;;;;;;18.65;46.72;102465.13;5049626;28;20493;-69
2022/01/29 07:42:40;;;;;;;16.03;4.27;;;;;;;17.97;49.88;102457.44;5049708;28;20045;-69
2022/01/29 07:45:06;;;;;;;16.03;5.20;;;;;;;18.16;48.06;102459.78;5056620;28;20402;-69
2022/01/29 07:47:33;;;;;;;6.67;3.00;;;;;;;18.89;45.96;102451.47;5061852;28;20071;-69
2022/01/29 07:49:59;;;;;;;13.57;3.90;;;;;;;19.00;45.55;102449.50;5048311;28;20110;-69
2022/01/29 07:52:24;;;;;;;12.30;3.83;;;;;;;17.93;48.12;102463.69;5049791;28;20044;-69
2022/01/29 07:54:50;;;;;;;12.00;3.83;;;;;;;18.98;45.00;102440.72;5050476;28;20078;-69
2022/01/29 07:57:15;;;;;;;15.00;3.90;;;;;;;18.37;46.68;102438.28;5054263;28;20035;-70
2022/01/29 07:59:40;;;;;;;12.20;4.77;;;;;;;19.30;44.43;102431.22;5053930;28;20032;-70
2022/01/29 08:02:06;;;;;;;19.40;4.33;;;;;;;18.50;47.30;102446.00;5070212;28;20053;-70
2022/01/29 08:04:32;;;;;;;14.40;4.70;;;;;;;19.93;43.10;102434.25;5067933;28;20025;-70
2022/01/29 08:06:57;;;;;;;11.53;3.43;;;;;;;18.33;48.04;102435.69;5065155;28;20056;-70
2022/01/29 08:09:22;;;;;;;12.57;3.70;;;;;;;17.55;50.77;102430.69;5050988;28;20456;-70
2022/01/29 08:11:48;;;;;;;12.93;4.60;;;;;;;18.40;46.57;102438.22;5067999;28;20027;-70
2022/01/29 08:14:14;;;;;;;10.77;4.13;;;;;;;18.61;46.01;102430.78;5069090;28;20578;-70
2022/01/29 08:16:40;;;;;;;12.80;4.23;;;;;;;19.51;45.10;102424.59;5048782;28;20385;-70
2022/01/29 08:19:05;;;;;;;11.90;3.27;;;;;;;19.42;45.44;102430.94;5065685;28;20028;-70
2022/01/29 08:21:31;;;;;;;13.23;3.90;;;;;;;19.28;44.26;102418.00;5068442;28;20044;-70
2022/01/29 08:23:56;;;;;;;15.43;4.70;;;;;;;19.12;44.76;102413.91;5050884;28;20116;-70
2022/01/29 08:26:21;;;;;;;22.77;5.37;;;;;;;19.15;45.36;102403.25;5065201;28;20094;-70
2022/01/29 08:28:47;;;;;;;9.27;3.77;;;;;;;18.96;46.07;102423.97;5062588;28;20543;-70
2022/01/29 08:31:12;;;;;;;8.83;3.57;;;;;;;18.38;47.15;102424.16;5051345;28;20087;-70
2022/01/29 08:33:38;;;;;;;12.93;3.50;;;;;;;18.17;48.66;102429.78;5064495;28;20036;-70
2022/01/29 08:36:04;;;;;;;12.93;4.20;;;;;;;18.09;48.21;102433.44;5049342;28;20028;-70
2022/01/29 08:38:30;;;;;;;18.80;3.47;;;;;;;18.09;47.66;102433.44;5048113;28;20112;-70
2022/01/29 08:40:55;;;;;;;10.93;3.10;;;;;;;17.24;50.10;102415.22;5051279;28;20055;-70
2022/01/29 08:43:22;;;;;;;12.03;3.23;;;;;;;18.97;46.65;102407.16;5047809;28;20043;-70
2022/01/29 08:45:49;;;;;;;7.40;2.70;;;;;;;18.58;47.18;102414.97;5044333;28;20023;-70
2022/01/29 08:48:15;;;;;;;7.87;2.83;;;;;;;19.17;44.95;102419.16;5062954;28;20032;-70
2022/01/29 08:50:40;;;;;;;10.97;3.03;;;;;;;17.99;47.46;102410.66;5054850;28;20028;-70
2022/01/29 08:53:06;;;;;;;9.53;2.50;;;;;;;17.60;48.35;102408.56;5067546;28;20030;-70
2022/01/29 08:55:36;;;;;;;8.70;2.40;;;;;;;17.72;49.20;102410.19;5066546;28;20040;-70
2022/01/29 08:58:05;;;;;;;7.73;2.17;;;;;;;17.09;49.91;102406.63;5057735;28;20492;-70
2022/01/29 09:00:31;;;;;;;10.37;2.83;;;;;;;19.02;44.90;102394.69;5058073;28;20036;-70
2022/01/29 09:02:56;;;;;;;10.00;2.67;;;;;;;18.20;47.01;102398.84;5056118;28;20170;-70
2022/01/29 09:05:22;;;;;;;15.27;2.50;;;;;;;19.55;44.92;102393.53;5050209;28;20032;-70
2022/01/29 09:07:47;;;;;;;10.13;2.70;;;;;;;18.90;44.98;102392.28;5047038;28;20021;-70
2022/01/29 09:10:13;;;;;;;14.87;3.70;;;;;;;19.69;43.46;102372.91;5066579;28;20078;-70
2022/01/29 09:12:39;;;;;;;3.43;2.27;;;;;;;18.59;45.30;102396.38;5064859;28;20024;-70
2022/01/29 09:15:05;;;;;;;11.23;2.60;;;;;;;20.04;42.59;102383.56;5063397;28;20036;-70
2022/01/29 09:17:30;;;;;;;9.37;2.83;;;;;;;18.95;44.07;102382.50;5054061;28;20047;-70
2022/01/29 09:19:56;;;;;;;12.57;2.37;;;;;;;19.08;44.95;102383.97;5063397;28;20044;-70
2022/01/29 09:22:21;;;;;;;8.17;2.03;;;;;;;18.74;45.74;102387.28;5050648;28;20089;-70
2022/01/29 09:24:46;;;;;;;12.27;2.23;;;;;;;17.88;47.16;102394.06;5068877;28;20029;-70
2022/01/29 09:27:12;;;;;;;8.73;2.53;;;;;;;19.38;44.06;102375.38;5056214;28;20424;-69
2022/01/29 09:29:37;;;;;;;8.67;2.87;;;;;;;20.08;42.78;102388.75;5064720;28;20040;-70
2022/01/29 09:32:03;;;;;;;7.73;2.20;;;;;;;19.04;44.80;102392.91;5064370;28;20044;-70
2022/01/29 09:34:28;;;;;;;11.83;2.10;;;;;;;19.67;42.82;102383.53;5061435;28;20493;-70
2022/01/29 09:36:54;;;;;;;7.77;1.87;;;;;;;18.54;45.75;102400.03;5060621;28;20041;-70
2022/01/29 09:39:19;;;;;;;7.77;2.60;;;;;;;19.20;44.10;102381.97;5059213;28;20477;-70
2022/01/29 09:41:45;;;;;;;5.60;2.43;;;;;;;19.53;43.22;102390.06;5068062;28;20487;-70
2022/01/29 09:44:12;;;;;;;7.20;1.73;;;;;;;18.58;44.92;102367.28;5084518;28;20115;-70
2022/01/29 09:46:40;;;;;;;8.03;2.47;;;;;;;20.74;40.49;102353.41;5054347;28;20032;-70
2022/01/29 09:49:05;;;;;;;8.20;1.50;;;;;;;19.65;42.89;102368.56;5051523;28;20029;-70
2022/01/29 09:51:31;;;;;;;8.07;1.77;;;;;;;19.92;42.29;102360.84;5063239;28;20028;-71
2022/01/29 09:53:56;;;;;;;7.37;1.67;;;;;;;19.52;42.98;102348.53;5062541;28;20115;-70
2022/01/29 09:56:22;;;;;;;10.43;1.60;;;;;;;19.80;42.92;102347.00;5070407;28;20029;-70
2022/01/29 09:58:47;;;;;;;5.17;1.20;;;;;;;19.30;43.56;102336.66;5057962;28;20017;-70
2022/01/29 10:01:12;;;;;;;6.23;1.40;;;;;;;19.02;44.84;102325.81;5060795;28;20155;-70
2022/01/29 10:03:38;;;;;;;6.23;1.30;;;;;;;20.28;41.73;102334.28;5051627;28;20025;-70
2022/01/29 10:06:04;;;;;;;4.70;1.60;;;;;;;19.10;44.67;102323.00;5052194;28;20385;-71
2022/01/29 10:08:41;;;;;;;6.93;1.40;;;;;;;20.98;40.73;102333.22;5050822;28;20024;-70
2022/01/29 10:11:21;;;;;;;6.33;1.63;;;;;;;19.07;44.60;102323.94;5068016;28;20073;-70
2022/01/29 10:13:47;;;;;;;9.33;2.93;;;;;;;20.06;42.34;102326.91;5082534;28;20523;-69
2022/01/29 10:16:15;;;;;;;10.67;1.63;;;;;;;21.09;39.99;102325.78;5072087;28;20057;-70
2022/01/29 10:18:45;;;;;;;6.33;1.57;;;;;;;20.31;40.50;102347.47;5071241;28;20029;-70
2022/01/29 10:21:10;;;;;;;3.27;1.13;;;;;;;20.18;41.84;102346.91;5068990;28;20064;-70
2022/01/29 10:23:36;;;;;;;6.53;1.30;;;;;;;19.80;43.02;102341.69;5067642;28;20032;-70
2022/01/29 10:26:02;;;;;;;6.63;1.90;;;;;;;19.60;41.71;102346.59;5050652;28;20052;-69
2022/01/29 10:28:28;;;;;;;6.10;1.47;;;;;;;19.80;41.20;102346.13;5052476;28;20082;-70
2022/01/29 10:30:53;;;;;;;3.70;1.20;;;;;;;20.74;40.60;102340.13;5067570;28;20111;-70
2022/01/29 10:33:19;;;;;;;7.57;1.33;;;;;;;20.24;41.44;102337.94;5068279;28;20081;-70
2022/01/29 10:36:06;;;;;;;11.70;1.17;;;;;;;21.11;39.58;102333.72;5052753;28;20029;-69
2022/01/29 10:38:40;;;;;;;6.67;1.50;;;;;;;21.75;37.89;102328.16;5073969;28;20020;-68
2022/01/29 10:41:26;;;;;;;5.20;0.90;;;;;;;20.25;41.16;102331.69;5051498;28;20047;-70
2022/01/29 10:44:21;;;;;;;5.77;1.33;;;;;;;21.43;39.62;102330.06;5073947;28;20065;-69
2022/01/29 10:46:46;;;;;;;6.57;1.17;;;;;;;19.63;42.02;102317.31;5050645;28;20425;-69
2022/01/29 10:49:32;;;;;;;11.37;1.57;;;;;;;21.40;39.65;102303.53;5068435;28;20063;-69
2022/01/29 10:52:01;;;;;;;2.67;0.83;;;;;;;20.58;40.57;102311.31;5069848;28;20392;-69
2022/01/29 10:54:28;;;;;;;5.27;1.27;;;;;;;20.47;40.54;102298.34;5054331;28;20469;-69
2022/01/29 10:57:02;;;;;;;3.77;1.50;;;;;;;20.31;41.51;102315.63;5049821;28;20480;-69
2022/01/29 10:59:29;;;;;;;9.60;1.50;;;;;;;21.69;39.20;102315.91;5049570;28;20037;-70
2022/01/29 11:01:58;;;;;;;3.87;1.07;;;;;;;21.50;39.60;102315.63;5054860;28;20021;-70
2022/01/29 11:04:26;;;;;;;6.70;1.03;;;;;;;20.12;41.31;102309.94;5062711;28;20067;-69
2022/01/29 11:06:53;;;;;;;16.47;2.40;;;;;;;20.24;41.20;102295.47;5049669;28;20802;-69
2022/01/29 11:09:20;;;;;;;9.60;1.70;;;;;;;19.66;42.26;102296.06;5058525;28;20090;-69
2022/01/29 11:11:46;;;;;;;8.47;1.43;;;;;;;19.40;43.37;102271.03;5067641;28;20032;-69
2022/01/29 11:14:14;;;;;;;6.20;1.40;;;;;;;19.64;42.78;102276.63;5058866;28;20036;-70
2022/01/29 11:16:41;;;;;;;10.47;1.40;;;;;;;21.33;39.04;102267.44;5052029;28;20035;-70
2022/01/29 11:19:07;;;;;;;3.93;1.27;;;;;;;20.35;41.86;102261.50;5070402;28;20527;-70
2022/01/29 11:21:35;;;;;;;6.53;1.80;;;;;;;20.44;40.99;102252.41;5068709;28;20052;-69
2022/01/29 11:24:01;;;;;;;4.87;1.13;;;;;;;20.49;40.97;102274.38;5049519;28;20447;-70
2022/01/29 11:26:30;;;;;;;4.63;1.20;;;;;;;19.79;42.54;102268.28;5049250;28;20037;-69